Terminal Aerodrome Forecast
Issued by NWS

Home | Current Version | Previous Version | Text Only | Print | Product List | Glossary On
Versions: 1 2 3 4 5 6 7 8 9 10 11 12 13 14 15
000
FTUS41 KLWX 271720
TAFMTN
TAF
KMTN 271720Z 2718/2818 16004KT P6SM SCT050 SCT250
     FM280000 00000KT P6SM FEW250
     FM281100 VRB03KT P6SM BKN110
     FM281600 09007KT P6SM VCSH BKN060=

USA.gov is the U.S. government's official web portal to all federal, state and local government web resources and services.